Time;durP1;ratioP1;P1;durP2;ratioP2;P2;SDS_P1;SDS_P2;PMS_P1;PMS_P2;Temp;Humidity;BMP_temperature;BMP_pressure;BME280_temperature;BME280_humidity;BME280_pressure;Samples;Min_cycle;Max_cycle;Signal;HPM_P1;HPM_P2
2022/09/17 00:01:19;;;;;;;2.83;1.00;;;13.60;90.40;;;13.85;57.44;98324.88;4985309;28;123943;-75
2022/09/17 00:04:02;;;;;;;1.80;1.00;;;13.60;90.40;;;13.82;57.55;98317.25;4982128;28;122956;-76
2022/09/17 00:06:31;;;;;;;2.20;1.20;;;13.50;90.50;;;13.77;57.42;98325.78;4981461;28;114385;-75
2022/09/17 00:08:58;;;;;;;1.50;1.30;;;13.50;90.50;;;13.75;57.73;98320.56;4986008;28;114785;-75
2022/09/17 00:11:28;;;;;;;1.30;0.90;;;13.50;90.50;;;13.74;57.88;98329.25;4972213;28;124082;-75
2022/09/17 00:13:57;;;;;;;1.80;0.87;;;13.50;90.50;;;13.72;57.96;98323.25;4988065;28;123593;-74
2022/09/17 00:16:30;;;;;;;2.37;1.00;;;13.50;90.60;;;13.71;57.83;98333.53;4982001;28;114764;-75
2022/09/17 00:18:58;;;;;;;1.47;1.23;;;13.40;90.60;;;13.70;58.07;98335.50;4993153;28;114143;-75
2022/09/17 00:21:25;;;;;;;1.87;1.10;;;13.50;90.70;;;13.72;58.08;98331.56;4975481;28;124073;-75
2022/09/17 00:23:58;;;;;;;1.30;1.00;;;13.40;90.60;;;13.74;57.80;98332.03;4981034;28;124725;-75
2022/09/17 00:26:25;;;;;;;1.20;1.00;;;13.40;90.60;;;13.71;57.59;98325.22;4987851;28;114218;-75
2022/09/17 00:28:53;;;;;;;1.30;1.10;;;13.40;90.60;;;13.71;58.02;98327.97;4982585;28;114629;-75
2022/09/17 00:31:21;;;;;;;1.00;0.90;;;13.40;90.70;;;13.76;57.72;98332.50;4983809;28;123920;-76
2022/09/17 00:33:48;;;;;;;1.83;0.90;;;13.40;90.70;;;13.76;57.69;98336.09;4980751;28;123875;-75
2022/09/17 00:36:19;;;;;;;2.27;1.47;;;13.40;90.70;;;13.74;57.38;98332.03;4987350;28;114668;-75
2022/09/17 00:38:51;;;;;;;1.20;1.10;;;13.40;90.70;;;13.68;57.82;98340.59;4987640;28;113995;-76
2022/09/17 00:41:18;;;;;;;1.37;1.10;;;15.30;91.50;;;13.63;57.97;98321.38;4983548;28;124225;-75
2022/09/17 00:43:50;;;;;;;0.90;0.80;;;15.30;91.60;;;13.64;58.01;98331.31;4984166;28;122845;-76
2022/09/17 00:46:39;;;;;;;1.70;1.20;;;13.30;90.80;;;13.62;57.90;98325.31;4988952;28;114402;-75
2022/09/17 00:49:22;;;;;;;3.10;1.27;;;13.30;90.80;;;13.60;57.97;98327.63;4963580;28;112830;-76
2022/09/17 00:52:01;;;;;;;1.93;1.10;;;13.30;90.80;;;13.59;58.04;98325.97;4988332;28;124872;-75
2022/09/17 00:54:27;;;;;;;1.57;1.30;;;13.20;90.80;;;13.60;58.37;98333.16;4981745;28;123987;-75
2022/09/17 00:56:55;;;;;;;1.67;1.30;;;13.40;90.90;;;13.65;58.16;98332.16;4988522;28;114738;-75
2022/09/17 00:59:22;;;;;;;0.90;0.80;;;14.30;91.40;;;13.66;58.16;98336.53;4973918;28;114443;-75
2022/09/17 01:01:50;;;;;;;1.10;1.00;;;13.30;90.90;;;13.68;58.42;98334.22;4970302;28;122967;-75
2022/09/17 01:04:20;;;;;;;1.43;1.13;;;13.30;90.90;;;13.67;58.15;98333.44;4984349;28;123063;-81
2022/09/17 01:06:52;;;;;;;2.00;1.23;;;13.30;91.00;;;13.65;58.24;98341.28;4979162;28;114278;-75
2022/09/17 01:09:55;;;;;;;1.63;1.00;;;13.30;91.00;;;13.62;58.13;98335.59;4991496;28;113283;-81
2022/09/17 01:12:33;;;;;;;4.80;1.10;;;13.30;91.00;;;13.57;58.25;98342.19;4989318;28;124297;-81
2022/09/17 01:15:17;;;;;;;1.20;1.00;;;13.20;90.90;;;13.55;58.38;98338.94;4988396;28;122829;-77
2022/09/17 01:17:58;;;;;;;1.67;1.00;;;13.20;90.90;;;13.55;58.37;98338.94;4984353;28;114431;-76
2022/09/17 01:21:34;;;;;;;3.33;1.20;;;13.20;91.00;;;13.55;58.29;98346.47;4973870;28;114418;-74
2022/09/17 01:24:08;;;;;;;2.30;1.20;;;13.20;91.00;;;13.55;58.51;98347.25;4956115;28;123362;-75
2022/09/17 01:27:30;;;;;;;6.93;1.40;;;13.20;91.00;;;13.53;58.30;98352.34;4949475;28;124391;-74
2022/09/17 01:30:33;;;;;;;1.90;1.10;;;13.20;91.10;;;13.57;58.33;98349.72;4988027;28;114339;-75
2022/09/17 01:33:14;;;;;;;1.20;1.10;;;13.20;91.10;;;13.63;58.30;98353.88;4980155;28;114157;-75
2022/09/17 01:36:44;;;;;;;2.60;1.47;;;13.20;91.10;;;13.64;58.16;98350.75;4982451;28;124131;-75
2022/09/17 01:39:44;;;;;;;2.90;1.03;;;13.30;91.20;;;13.64;58.27;98350.75;4980190;28;124407;-75
2022/09/17 01:42:15;;;;;;;1.40;1.30;;;13.30;91.20;;;13.64;58.36;98363.81;4988242;28;113425;-75
2022/09/17 01:45:36;;;;;;;3.30;1.20;;;13.20;91.10;;;13.57;58.44;98366.38;4974729;28;112929;-76
2022/09/17 01:48:16;;;;;;;2.80;1.10;;;13.30;91.20;;;13.51;58.67;98368.53;4955085;28;123797;-75
2022/09/17 01:51:10;;;;;;;1.53;1.00;;;13.20;91.20;;;13.46;58.59;98360.44;4980247;28;123608;-75
2022/09/17 01:54:07;;;;;;;2.40;1.40;;;13.10;91.10;;;13.40;58.85;98357.03;4970934;28;114864;-75
2022/09/17 01:57:06;;;;;;;3.20;1.10;;;13.10;91.20;;;13.36;58.82;98360.84;4978618;28;114070;-75
2022/09/17 01:59:40;;;;;;;1.97;1.10;;;13.10;91.30;;;13.30;59.12;98363.03;4980807;28;124031;-75
2022/09/17 02:02:17;;;;;;;4.40;1.10;;;13.00;91.30;;;13.28;59.44;98358.97;4971254;28;124112;-75
2022/09/17 02:05:04;;;;;;;1.73;1.43;;;13.00;91.40;;;13.23;59.36;98368.28;4984432;28;114661;-75
2022/09/17 02:07:38;;;;;;;1.90;1.30;;;13.00;91.50;;;13.19;59.72;98364.56;4981944;28;114068;-75
2022/09/17 02:10:11;;;;;;;1.57;1.30;;;13.00;91.60;;;13.15;59.97;98370.00;4983021;28;124529;-75
2022/09/17 02:12:51;;;;;;;2.40;1.40;;;12.80;91.60;;;13.12;59.74;98367.91;4975685;28;124151;-75
2022/09/17 02:15:32;;;;;;;2.17;1.30;;;12.80;91.70;;;13.08;60.19;98372.50;4984440;28;115037;-75
2022/09/17 02:18:26;;;;;;;4.07;1.20;;;12.80;91.80;;;13.09;59.93;98371.34;4989917;28;114512;-75
2022/09/17 02:21:02;;;;;;;4.60;1.40;;;12.80;91.80;;;13.10;59.94;98366.63;4980992;28;124477;-74
2022/09/17 02:23:35;;;;;;;1.93;1.07;;;12.80;91.90;;;13.11;59.96;98360.75;4971255;28;123934;-76
2022/09/17 02:26:12;;;;;;;12.13;2.90;;;12.90;91.90;;;13.15;59.81;98360.84;4986770;28;114523;-75
2022/09/17 02:28:49;;;;;;;3.67;1.13;;;12.80;91.90;;;13.14;59.67;98368.38;5001685;28;113941;-75
2022/09/17 02:31:15;;;;;;;2.60;1.20;;;12.80;92.20;;;13.15;59.99;98372.75;4983817;28;124677;-75
2022/09/17 02:33:48;;;;;;;1.87;1.20;;;12.90;91.90;;;13.16;59.59;98357.72;4979352;28;124372;-75
2022/09/17 02:36:15;;;;;;;1.60;1.43;;;12.80;91.90;;;13.16;59.89;98363.28;4985093;28;114283;-75
2022/09/17 02:38:44;;;;;;;2.77;1.20;;;12.80;91.90;;;13.17;59.67;98353.00;4980841;28;112946;-75
2022/09/17 02:41:22;;;;;;;2.23;1.10;;;12.90;91.80;;;13.20;59.50;98361.47;4984034;28;124091;-75
2022/09/17 02:44:22;;;;;;;3.77;1.50;;;12.80;91.80;;;13.21;59.58;98354.75;4957582;28;122860;-75
2022/09/17 02:47:26;;;;;;;3.70;1.40;;;12.80;91.80;;;13.18;59.36;98355.44;4987986;28;114311;-74
2022/09/17 02:50:35;;;;;;;3.20;1.30;;;12.80;91.70;;;13.16;59.56;98346.63;4980865;28;113759;-74
2022/09/17 02:53:31;;;;;;;2.17;1.30;;;12.90;91.80;;;13.14;59.50;98353.69;4975735;28;124078;-75
2022/09/17 02:56:33;;;;;;;1.63;1.07;;;12.80;91.70;;;13.07;59.67;98348.69;4981036;28;122930;-75
2022/09/17 02:59:49;;;;;;;3.40;0.90;;;12.70;91.70;;;13.01;59.68;98345.31;4985379;28;113558;-75
2022/09/17 03:02:23;;;;;;;1.90;1.10;;;12.70;91.70;;;12.99;59.81;98347.59;4974518;28;114479;-75
2022/09/17 03:04:50;;;;;;;4.20;1.10;;;13.10;92.00;;;12.96;60.05;98347.50;4990897;28;124118;-77
2022/09/17 03:07:18;;;;;;;1.53;1.20;;;12.70;91.80;;;12.99;60.07;98353.16;4977978;28;123674;-75
2022/09/17 03:09:45;;;;;;;2.10;1.13;;;12.70;91.80;;;12.99;59.92;98349.56;4975056;28;115279;-77
2022/09/17 03:12:13;;;;;;;6.00;1.40;;;12.70;91.80;;;12.99;59.98;98346.81;4984305;28;114873;-75
2022/09/17 03:14:39;;;;;;;2.23;1.20;;;12.70;91.80;;;12.97;59.95;98340.78;4980347;28;124449;-75
2022/09/17 03:17:06;;;;;;;4.97;1.60;;;12.70;91.80;;;12.93;59.92;98342.63;4981173;28;123860;-74
2022/09/17 03:19:33;;;;;;;4.50;1.50;;;12.80;91.90;;;12.91;60.11;98350.47;4984104;28;114355;-75
2022/09/17 03:21:59;;;;;;;2.47;1.30;;;12.60;91.80;;;12.91;60.08;98350.47;4985398;28;114079;-75
2022/09/17 03:24:26;;;;;;;2.83;1.30;;;12.60;91.90;;;12.90;59.83;98337.75;4980761;28;123776;-75
2022/09/17 03:26:54;;;;;;;2.73;1.40;;;12.80;92.00;;;12.89;59.94;98341.66;4993965;28;123862;-75
2022/09/17 03:29:20;;;;;;;4.40;1.50;;;12.60;91.90;;;12.88;60.03;98346.41;4985877;28;114435;-75
2022/09/17 03:31:46;;;;;;;2.30;1.23;;;12.60;91.90;;;12.86;60.05;98342.34;4984924;28;114014;-75
2022/09/17 03:34:13;;;;;;;3.00;1.30;;;12.50;91.90;;;12.86;60.16;98361.75;4983597;28;124205;-75
2022/09/17 03:36:40;;;;;;;3.80;1.30;;;12.50;91.90;;;12.83;60.06;98360.47;4987142;28;123366;-74
2022/09/17 03:39:06;;;;;;;3.03;1.20;;;12.50;91.90;;;12.79;60.21;98354.81;4987892;28;113841;-74
2022/09/17 03:41:33;;;;;;;4.97;1.57;;;12.50;91.90;;;12.78;60.21;98355.13;4992623;28;113992;-75
2022/09/17 03:44:00;;;;;;;3.63;1.30;;;12.50;91.90;;;12.76;60.07;98355.47;4994954;28;122452;-75
2022/09/17 03:46:27;;;;;;;3.37;1.10;;;12.40;91.90;;;12.76;60.07;98363.78;4991519;28;123712;-75
2022/09/17 03:48:54;;;;;;;1.20;1.10;;;12.40;91.90;;;12.74;60.00;98368.84;4994575;28;114370;-75
2022/09/17 03:51:20;;;;;;;2.50;1.47;;;13.10;92.30;;;12.73;60.28;98372.75;4993429;28;114000;-75
2022/09/17 03:53:47;;;;;;;4.40;1.33;;;12.90;92.20;;;12.73;60.00;98369.19;4984210;28;124113;-75
2022/09/17 03:56:14;;;;;;;4.83;1.40;;;12.40;92.00;;;12.74;60.20;98374.41;4992334;28;124153;-75
2022/09/17 03:58:40;;;;;;;3.70;1.30;;;12.40;92.00;;;12.76;60.14;98365.72;4971277;28;114748;-75
2022/09/17 04:01:07;;;;;;;4.03;1.40;;;12.80;92.20;;;12.80;60.26;98375.81;4986938;28;114886;-75
2022/09/17 04:03:33;;;;;;;4.30;1.57;;;12.40;92.10;;;12.82;60.08;98381.03;4991453;28;123906;-75
2022/09/17 04:06:00;;;;;;;3.23;1.00;;;12.40;92.00;;;12.82;59.89;98381.84;4992811;28;123873;-74
2022/09/17 04:08:26;;;;;;;4.83;1.67;;;12.40;92.00;;;12.81;60.07;98383.00;4991233;28;114564;-75
2022/09/17 04:10:53;;;;;;;3.47;1.53;;;12.50;92.00;;;12.79;59.95;98382.53;4990234;28;114094;-75
2022/09/17 04:13:20;;;;;;;4.03;1.60;;;12.40;91.90;;;12.75;60.16;98373.25;4971459;28;122831;-75
2022/09/17 04:15:47;;;;;;;4.10;1.20;;;12.90;92.20;;;12.74;60.12;98366.09;4990382;28;123840;-74
2022/09/17 04:18:14;;;;;;;3.30;1.30;;;12.40;92.00;;;12.72;60.06;98375.88;4995414;28;114738;-75
2022/09/17 04:20:41;;;;;;;2.30;1.40;;;12.40;91.90;;;12.68;59.98;98373.00;4988704;28;114024;-75
2022/09/17 04:23:10;;;;;;;2.53;1.20;;;12.50;92.00;;;12.64;59.94;98374.78;4986646;28;124848;-75
2022/09/17 04:25:37;;;;;;;2.77;1.20;;;12.30;91.90;;;12.61;60.05;98364.38;4970366;28;124430;-75
2022/09/17 04:28:04;;;;;;;2.43;1.40;;;12.60;92.10;;;12.60;59.88;98368.31;4989249;28;114303;-75
2022/09/17 04:30:31;;;;;;;6.27;1.57;;;12.30;92.00;;;12.57;60.22;98378.13;4982569;28;113828;-74
2022/09/17 04:32:58;;;;;;;1.30;1.13;;;12.30;92.00;;;12.55;60.20;98377.63;4989500;28;124186;-77
2022/09/17 04:35:25;;;;;;;4.07;1.43;;;12.60;92.10;;;12.56;60.21;98384.78;4993280;28;124491;-75
2022/09/17 04:37:59;;;;;;;3.77;1.33;;;12.20;91.90;;;12.56;59.83;98383.97;4993016;28;114465;-77
2022/09/17 04:40:27;;;;;;;4.60;1.30;;;12.20;91.90;;;12.54;60.13;98391.81;4987488;28;114498;-76
2022/09/17 04:42:58;;;;;;;4.53;1.23;;;12.20;92.00;;;12.52;59.90;98394.09;4988298;28;124469;-75
2022/09/17 04:45:25;;;;;;;4.00;1.17;;;12.20;91.90;;;12.50;60.01;98401.94;4978894;28;123871;-75
2022/09/17 04:47:52;;;;;;;4.23;1.47;;;12.20;91.90;;;12.49;59.95;98405.84;4985207;28;114853;-75
2022/09/17 04:50:18;;;;;;;2.97;1.73;;;12.10;91.90;;;12.48;59.85;98415.31;4981542;28;115132;-75
2022/09/17 04:52:46;;;;;;;5.53;1.40;;;12.40;92.00;;;12.47;59.78;98413.72;4989400;28;124156;-75
2022/09/17 04:55:14;;;;;;;3.33;1.63;;;12.40;92.00;;;12.45;60.29;98413.22;4984610;28;123416;-75
2022/09/17 04:57:49;;;;;;;7.63;1.30;;;12.10;91.90;;;12.43;60.22;98410.78;4978294;28;114425;-75
2022/09/17 05:00:17;;;;;;;6.23;1.70;;;12.40;92.10;;;12.40;60.11;98419.75;4974571;28;113822;-75
2022/09/17 05:02:46;;;;;;;3.43;1.30;;;12.10;91.90;;;12.40;60.02;98414.22;4988939;28;124683;-75
2022/09/17 05:05:15;;;;;;;6.10;1.57;;;12.10;91.90;;;12.43;60.21;98423.81;4985607;28;123773;-75
2022/09/17 05:07:41;;;;;;;3.67;1.67;;;12.10;92.00;;;12.45;60.14;98421.53;4991683;28;114120;-75
2022/09/17 05:10:10;;;;;;;4.50;1.40;;;12.10;92.00;;;12.42;60.21;98427.75;4985573;28;114143;-75
2022/09/17 05:12:36;;;;;;;6.80;1.50;;;12.10;92.00;;;12.41;60.19;98420.56;4982311;28;124141;-75
2022/09/17 05:15:04;;;;;;;3.00;1.37;;;12.20;92.00;;;12.38;60.19;98425.66;4978618;28;123576;-74
2022/09/17 05:17:31;;;;;;;7.50;1.60;;;12.10;91.90;;;12.42;60.16;98419.44;4970092;28;113884;-77
2022/09/17 05:19:57;;;;;;;3.27;1.43;;;13.20;92.40;;;12.39;59.86;98409.84;4990233;28;112880;-75
2022/09/17 05:22:24;;;;;;;2.60;1.30;;;12.60;92.10;;;12.37;59.83;98418.47;4969537;28;125666;-76
2022/09/17 05:24:50;;;;;;;3.03;1.40;;;12.00;91.90;;;12.38;60.17;98414.56;4972292;28;123755;-75
2022/09/17 05:27:17;;;;;;;5.10;1.70;;;12.30;92.00;;;12.41;60.17;98426.09;4970116;28;114084;-74
2022/09/17 05:29:44;;;;;;;6.80;1.40;;;12.00;91.90;;;12.46;60.37;98417.59;4985058;28;114023;-74
2022/09/17 05:32:10;;;;;;;5.17;1.40;;;12.10;92.10;;;12.51;60.50;98420.19;4975797;28;124834;-75
2022/09/17 05:34:36;;;;;;;2.30;1.40;;;12.10;92.20;;;12.57;60.22;98429.94;4970198;28;124059;-74
2022/09/17 05:37:03;;;;;;;9.73;1.77;;;12.10;92.20;;;12.59;60.01;98427.66;4975970;28;115395;-76
2022/09/17 05:39:32;;;;;;;5.37;1.57;;;12.20;92.10;;;12.57;59.60;98424.38;4972461;28;115038;-75
2022/09/17 05:41:59;;;;;;;2.20;1.40;;;12.20;92.00;;;12.55;59.71;98435.03;4974749;28;124262;-75
2022/09/17 05:44:26;;;;;;;4.50;1.47;;;12.40;92.00;;;12.56;59.85;98436.63;4980615;28;123862;-75
2022/09/17 05:46:53;;;;;;;3.93;1.40;;;12.20;91.90;;;12.55;59.63;98429.47;4986544;28;114341;-75
2022/09/17 05:49:20;;;;;;;4.67;1.70;;;12.20;91.90;;;12.53;59.62;98429.00;4980587;28;113914;-74
2022/09/17 05:51:47;;;;;;;7.40;2.47;;;12.20;91.80;;;12.51;60.02;98421.00;4983931;28;123005;-75
2022/09/17 05:54:13;;;;;;;2.33;1.30;;;12.10;91.80;;;12.50;59.62;98435.22;4984255;28;122839;-76
2022/09/17 05:56:40;;;;;;;2.90;1.70;;;12.10;91.80;;;12.51;59.81;98439.59;4968222;28;114004;-76
2022/09/17 05:59:06;;;;;;;6.63;1.50;;;12.20;91.90;;;12.51;59.99;98445.13;4983277;28;114272;-76
2022/09/17 06:01:32;;;;;;;12.70;1.73;;;12.10;91.80;;;12.51;60.07;98448.72;4973794;28;124106;-75
2022/09/17 06:04:01;;;;;;;6.97;1.70;;;12.10;91.90;;;12.53;59.63;98445.63;4977352;28;123907;-75
2022/09/17 06:06:29;;;;;;;2.73;1.60;;;12.10;91.90;;;12.54;59.84;98453.59;4977199;28;114521;-76
2022/09/17 06:08:59;;;;;;;5.30;1.30;;;12.10;91.90;;;12.53;59.56;98451.16;4976550;28;115715;-75
2022/09/17 06:11:25;;;;;;;5.83;1.83;;;12.10;91.90;;;12.53;59.64;98448.38;4982762;28;123670;-74
2022/09/17 06:13:53;;;;;;;4.20;1.70;;;12.10;91.80;;;12.55;59.92;98459.97;4981496;28;123926;-75
2022/09/17 06:16:22;;;;;;;3.63;1.97;;;12.20;91.90;;;12.57;59.53;98458.47;4965709;28;113908;-75
2022/09/17 06:18:49;;;;;;;7.57;1.57;;;12.50;92.00;;;12.57;59.58;98463.19;4980420;28;113134;-74
2022/09/17 06:21:16;;;;;;;4.80;2.20;;;12.20;91.90;;;12.60;59.74;98468.09;4983156;28;124075;-74
2022/09/17 06:23:43;;;;;;;6.83;2.63;;;12.30;92.00;;;12.62;59.86;98457.47;4982031;28;123776;-74
2022/09/17 06:26:11;;;;;;;3.80;1.73;;;12.20;91.90;;;12.59;59.84;98460.91;4981599;28;115329;-79
2022/09/17 06:28:38;;;;;;;3.70;1.90;;;12.20;91.80;;;12.58;59.50;98467.59;4987424;28;115098;-74
2022/09/17 06:31:07;;;;;;;4.90;1.90;;;12.40;91.90;;;12.56;59.60;98467.13;4973183;28;124544;-74
2022/09/17 06:33:35;;;;;;;3.33;1.67;;;12.20;91.80;;;12.56;60.27;98467.91;4978354;28;123778;-74
2022/09/17 06:36:09;;;;;;;3.27;1.87;;;12.20;91.90;;;12.58;59.92;98465.63;4978720;28;114392;-74
2022/09/17 06:38:36;;;;;;;3.87;2.07;;;12.20;91.90;;;12.59;59.83;98475.56;4970707;28;114098;-74
2022/09/17 06:41:03;;;;;;;6.13;2.27;;;12.20;91.90;;;12.62;59.81;98470.50;4975442;28;124518;-74
2022/09/17 06:43:30;;;;;;;2.67;1.50;;;12.20;91.80;;;12.66;59.33;98475.06;4967519;28;124256;-74
2022/09/17 06:46:00;;;;;;;6.97;1.87;;;12.30;91.90;;;12.66;59.58;98472.28;4976508;28;115479;-74
2022/09/17 06:48:28;;;;;;;3.50;1.50;;;12.30;91.80;;;12.68;59.69;98483.84;4983642;28;113057;-74
2022/09/17 06:51:00;;;;;;;4.73;1.70;;;12.30;91.80;;;12.68;59.16;98483.84;4983575;28;123886;-75
2022/09/17 06:53:28;;;;;;;4.43;1.73;;;12.30;91.70;;;12.66;59.19;98477.81;4966939;28;123481;-75
2022/09/17 06:55:57;;;;;;;2.50;1.30;;;12.30;91.70;;;12.67;59.07;98485.00;4982102;28;114298;-75
2022/09/17 06:58:25;;;;;;;5.77;1.50;;;12.30;91.70;;;12.71;59.15;98490.69;4978106;28;114337;-74
2022/09/17 07:00:57;;;;;;;3.73;1.40;;;12.30;91.60;;;12.73;59.17;98482.84;4986023;28;124151;-74
2022/09/17 07:03:23;;;;;;;4.90;1.60;;;12.30;91.60;;;12.73;59.02;98480.88;4980414;28;123711;-75
2022/09/17 07:05:50;;;;;;;6.87;1.80;;;13.50;92.10;;;12.76;59.03;98485.78;4987597;28;113414;-77
2022/09/17 07:08:16;;;;;;;9.20;3.20;;;12.40;91.60;;;12.80;59.05;98485.91;4983778;28;113288;-75
2022/09/17 07:10:43;;;;;;;4.83;1.87;;;12.40;91.60;;;12.81;58.90;98493.91;4982633;28;123126;-79
2022/09/17 07:13:09;;;;;;;4.40;1.30;;;12.50;91.60;;;12.83;59.14;98497.13;4982405;28;123969;-76
2022/09/17 07:15:59;;;;;;;3.90;1.83;;;12.40;91.60;;;12.81;59.08;98501.38;4977105;28;114271;-87
2022/09/17 07:18:26;;;;;;;3.93;1.80;;;12.40;91.70;;;12.77;59.37;98498.47;4976861;28;114421;-78
2022/09/17 07:20:59;;;;;;;4.93;1.40;;;12.40;91.70;;;12.75;59.94;98508.28;4978390;28;124072;-76
2022/09/17 07:23:31;;;;;;;2.93;1.60;;;14.30;92.70;;;12.71;60.20;98510.91;4980555;28;124543;-79
2022/09/17 07:26:08;;;;;;;3.67;1.40;;;12.30;92.10;;;12.66;60.98;98522.19;4967637;28;114445;-78
2022/09/17 07:28:38;;;;;;;3.80;1.80;;;12.30;92.40;;;12.58;61.05;98514.72;4974148;28;114218;-78
2022/09/17 07:31:06;;;;;;;1.97;1.53;;;12.30;92.60;;;12.54;61.78;98522.88;4972471;28;123927;-77
2022/09/17 07:33:34;;;;;;;4.17;1.50;;;12.20;92.70;;;12.52;62.22;98530.72;4969859;28;123018;-77
2022/09/17 07:36:05;;;;;;;4.63;1.57;;;12.20;92.90;;;12.51;62.28;98526.31;4967108;28;114426;-78
2022/09/17 07:38:34;;;;;;;5.80;1.53;;;12.20;93.00;;;12.48;62.59;98521.44;4969621;28;113930;-81
2022/09/17 07:41:08;;;;;;;3.83;1.40;;;12.20;93.30;;;12.46;62.47;98522.91;4969170;28;124437;-76
2022/09/17 07:43:35;;;;;;;2.80;1.43;;;12.10;93.40;;;12.43;62.95;98521.59;4983727;28;124462;-75
2022/09/17 07:46:04;;;;;;;1.93;1.50;;;12.10;93.50;;;12.38;62.99;98524.56;4971672;28;114652;-78
2022/09/17 07:48:31;;;;;;;2.60;1.53;;;12.10;93.60;;;12.40;63.13;98527.81;4991805;28;113831;-79
2022/09/17 07:50:58;;;;;;;1.53;1.30;;;10.90;93.10;;;12.40;63.12;98535.31;4967794;28;124190;-78
2022/09/17 07:53:25;;;;;;;4.10;1.93;;;12.10;93.70;;;12.38;63.20;98532.88;4979097;28;123006;-77
2022/09/17 07:55:57;;;;;;;5.17;1.77;;;14.50;94.90;;;12.36;63.64;98537.94;4968979;28;114462;-80
2022/09/17 07:58:30;;;;;;;4.83;1.57;;;12.10;93.90;;;12.36;63.67;98541.53;4971888;28;113453;-79
2022/09/17 08:01:08;;;;;;;4.97;1.80;;;13.90;94.80;;;12.37;63.26;98537.59;4969923;28;124508;-81
2022/09/17 08:03:36;;;;;;;2.73;1.60;;;12.00;93.90;;;12.35;63.49;98545.41;4969727;28;123581;-78
2022/09/17 08:06:16;;;;;;;1.50;1.30;;;12.00;94.00;;;12.40;63.71;98546.41;4981142;28;115073;-80
2022/09/17 08:08:42;;;;;;;3.13;1.90;;;12.10;94.10;;;12.42;63.65;98547.69;4975194;28;116454;-80
2022/09/17 08:11:16;;;;;;;3.70;1.60;;;12.10;94.10;;;12.45;63.32;98551.78;4986332;28;123799;-86
2022/09/17 08:13:47;;;;;;;2.53;1.50;;;12.10;94.20;;;12.45;63.69;98546.22;4987493;28;124263;-81
2022/09/17 08:16:14;;;;;;;3.70;1.50;;;12.10;94.10;;;12.47;63.81;98553.06;4985306;28;114359;-83
2022/09/17 08:18:42;;;;;;;2.83;1.43;;;12.10;94.20;;;12.55;63.48;98554.19;4981956;28;112247;-79
2022/09/17 08:21:12;;;;;;;5.40;1.67;;;12.50;94.40;;;12.56;63.22;98555.81;4990238;28;124098;-87
2022/09/17 08:23:40;;;;;;;4.37;1.80;;;12.20;94.30;;;12.58;63.39;98554.31;4976237;28;123783;-84
2022/09/17 08:26:13;;;;;;;3.73;1.53;;;12.20;94.20;;;12.62;63.51;98548.13;4984490;28;113499;-78
2022/09/17 08:28:48;;;;;;;2.27;1.50;;;12.20;94.20;;;12.69;63.45;98554.78;4985645;28;114489;-85
2022/09/17 08:31:17;;;;;;;2.40;1.97;;;12.30;94.30;;;12.72;63.14;98548.56;4974470;28;123316;-79
2022/09/17 08:33:45;;;;;;;7.57;2.17;;;12.30;94.20;;;12.75;63.20;98547.06;4972860;28;123609;-82
2022/09/17 08:36:15;;;;;;;6.33;1.70;;;12.30;94.20;;;12.80;63.22;98550.47;4974194;28;113598;-79
2022/09/17 08:38:43;;;;;;;3.63;1.67;;;12.40;94.20;;;12.83;62.93;98549.81;4988155;28;113043;-80
2022/09/17 08:41:09;;;;;;;7.67;1.70;;;12.40;94.20;;;12.83;62.68;98549.81;4968775;28;123048;-83
2022/09/17 08:44:05;;;;;;;7.33;1.50;;;12.40;94.10;;;12.88;62.89;98550.78;4984192;28;124462;-78
2022/09/17 08:46:43;;;;;;;7.97;3.20;;;12.40;94.10;;;12.90;62.89;98551.25;4980905;28;113590;-87
2022/09/17 08:49:27;;;;;;;4.00;2.10;;;12.40;94.10;;;12.89;62.65;98552.41;4981961;28;113931;-84
2022/09/17 08:52:34;;;;;;;4.80;1.90;;;12.50;94.10;;;12.89;62.67;98549.63;4986810;28;124123;-83
2022/09/17 08:56:01;;;;;;;7.43;2.27;;;12.50;94.10;;;12.90;62.29;98548.50;4985578;28;123220;-81
2022/09/17 08:58:40;;;;;;;10.90;2.90;;;12.50;94.00;;;12.93;62.35;98564.47;4967491;28;115609;-82
2022/09/17 09:01:26;;;;;;;6.00;2.87;;;12.50;93.90;;;12.97;62.02;98559.84;4986601;28;114211;-80
2022/09/17 09:04:41;;;;;;;6.87;2.30;;;13.20;94.40;;;13.01;62.18;98560.81;4976377;28;123472;-85
2022/09/17 09:07:18;;;;;;;6.13;1.90;;;12.60;93.80;;;13.05;61.85;98556.22;4978022;28;123723;-87
2022/09/17 09:10:04;;;;;;;3.97;1.60;;;12.60;93.70;;;13.08;61.64;98563.06;4976011;28;114334;-81
2022/09/17 09:12:34;;;;;;;3.93;1.73;;;12.60;93.60;;;13.12;61.52;98558.47;4985142;28;114177;-82
2022/09/17 09:15:32;;;;;;;6.80;2.20;;;12.70;93.50;;;13.15;61.64;98560.59;4977335;28;124522;-78
2022/09/17 09:18:22;;;;;;;4.30;1.60;;;12.70;93.50;;;13.22;61.50;98561.69;4977964;28;123699;-86
2022/09/17 09:20:52;;;;;;;6.83;2.43;;;12.80;93.50;;;13.25;61.19;98561.00;4974883;28;114107;-80
2022/09/17 09:23:37;;;;;;;7.20;2.03;;;12.80;93.30;;;13.32;60.95;98554.13;4983006;28;113482;-85
2022/09/17 09:26:22;;;;;;;4.20;2.07;;;12.90;93.50;;;13.38;60.80;98559.16;4981088;28;124478;-85
2022/09/17 09:29:36;;;;;;;7.57;2.30;;;12.90;93.10;;;13.43;60.61;98552.56;4988388;28;123767;-82
2022/09/17 09:32:50;;;;;;;7.03;2.00;;;13.00;93.10;;;13.49;60.46;98548.47;4983510;28;114883;-85
2022/09/17 09:35:21;;;;;;;8.73;2.57;;;13.10;93.00;;;13.51;60.18;98551.69;4978886;28;113278;-85
2022/09/17 09:38:02;;;;;;;7.10;2.07;;;13.10;92.90;;;13.55;60.30;98547.13;4973705;28;124135;-80
2022/09/17 09:40:50;;;;;;;6.60;1.90;;;13.10;92.90;;;13.59;60.33;98556.38;4985088;28;123899;-79
2022/09/17 09:43:45;;;;;;;6.30;1.80;;;13.20;92.90;;;13.66;60.31;98559.44;4988901;28;113388;-80
2022/09/17 09:46:37;;;;;;;5.10;2.37;;;13.20;92.80;;;13.74;60.10;98554.97;4988723;28;114119;-81
2022/09/17 09:49:28;;;;;;;4.90;1.90;;;13.30;92.90;;;13.80;59.76;98553.59;4983520;28;124095;-87
2022/09/17 09:52:42;;;;;;;5.77;2.10;;;13.40;92.70;;;13.83;59.42;98550.13;4983371;28;123956;-84
2022/09/17 09:56:02;;;;;;;10.83;2.03;;;13.40;92.50;;;13.86;59.42;98552.25;4981399;28;115103;-86
2022/09/17 09:58:38;;;;;;;6.67;2.20;;;13.40;92.50;;;13.87;59.03;98558.63;4977746;28;115035;-87
2022/09/17 10:01:19;;;;;;;7.80;2.33;;;13.40;92.20;;;13.90;58.97;98555.97;4985504;28;123681;-82
2022/09/17 10:03:50;;;;;;;2.80;1.70;;;13.70;92.30;;;13.94;58.90;98553.31;4960069;28;123074;-78
2022/09/17 10:06:20;;;;;;;8.70;1.87;;;13.50;92.20;;;13.99;58.39;98555.06;4982901;28;114474;-78
2022/09/17 10:08:55;;;;;;;4.80;1.63;;;13.50;91.90;;;14.02;58.03;98549.63;4983300;28;114514;-82
2022/09/17 10:11:33;;;;;;;7.50;2.00;;;13.60;91.80;;;14.07;57.85;98548.63;4978063;28;123550;-76
2022/09/17 10:14:24;;;;;;;4.23;1.83;;;13.60;91.70;;;14.12;57.92;98549.22;4983054;28;124117;-86
2022/09/17 10:17:10;;;;;;;6.27;2.03;;;13.70;91.80;;;14.24;57.96;98550.41;4984588;28;114371;-78
2022/09/17 10:19:37;;;;;;;3.20;1.70;;;13.70;91.80;;;14.34;57.67;98553.56;4986708;28;113806;-78
2022/09/17 10:22:23;;;;;;;3.53;1.70;;;13.80;91.70;;;14.40;57.17;98545.84;4982609;28;124052;-78
2022/09/17 10:24:52;;;;;;;6.97;2.77;;;13.90;91.40;;;14.45;56.28;98542.00;4975619;28;123616;-79
2022/09/17 10:27:21;;;;;;;6.83;2.10;;;14.00;91.00;;;14.50;55.97;98544.56;4970827;28;114075;-80
2022/09/17 10:29:54;;;;;;;6.80;2.27;;;14.00;90.80;;;14.58;55.82;98540.91;4966986;28;114442;-83
2022/09/17 10:32:21;;;;;;;7.87;2.07;;;14.10;90.60;;;14.65;55.46;98527.25;4975533;28;123799;-80
2022/09/17 10:35:03;;;;;;;7.20;1.93;;;14.30;90.50;;;14.73;54.74;98542.22;4977028;28;123992;-78
2022/09/17 10:37:46;;;;;;;4.07;2.00;;;14.20;90.10;;;14.76;53.83;98549.84;4969665;28;114220;-79
2022/09/17 10:40:33;;;;;;;5.33;1.80;;;14.30;89.20;;;14.76;53.96;98522.03;4969657;28;113862;-78
2022/09/17 10:43:21;;;;;;;12.50;1.90;;;14.30;88.80;;;14.82;54.15;98531.78;4974477;28;125839;-78
2022/09/17 10:45:58;;;;;;;4.33;1.70;;;14.40;88.80;;;14.87;53.00;98537.09;4969669;28;124013;-80